createdAt,value
2022-10-07T00:01:21.811Z,11.30
2022-10-07T00:03:53.479Z,11.30
2022-10-07T00:06:24.194Z,11.30
2022-10-07T00:08:53.962Z,11.30
2022-10-07T00:11:23.895Z,11.30
2022-10-07T00:13:54.465Z,11.30
2022-10-07T00:16:25.481Z,11.30
2022-10-07T00:18:57.668Z,11.40
2022-10-07T00:21:28.461Z,11.40
2022-10-07T00:23:56.576Z,11.40
2022-10-07T00:26:26.803Z,11.50
2022-10-07T00:28:55.339Z,11.50
2022-10-07T00:31:28.081Z,11.50
2022-10-07T00:33:57.152Z,11.60
2022-10-07T00:36:29.138Z,11.60
2022-10-07T00:38:58.759Z,11.60
2022-10-07T00:41:29.722Z,11.60
2022-10-07T00:43:59.529Z,11.70
2022-10-07T00:46:32.314Z,11.70
2022-10-07T00:49:03.143Z,11.70
2022-10-07T00:51:36.420Z,11.70
2022-10-07T00:54:07.730Z,11.70
2022-10-07T00:56:36.952Z,11.70
2022-10-07T00:59:07.303Z,11.60
2022-10-07T01:01:35.425Z,11.60
2022-10-07T01:04:03.463Z,11.60
2022-10-07T01:06:32.749Z,11.60
2022-10-07T01:09:01.002Z,11.60
2022-10-07T01:11:41.441Z,11.60
2022-10-07T01:14:13.856Z,11.60
2022-10-07T01:16:50.033Z,11.60
2022-10-07T01:19:36.958Z,11.60
2022-10-07T01:22:20.546Z,11.60
2022-10-07T01:24:59.405Z,11.60
2022-10-07T01:27:30.568Z,11.70
2022-10-07T01:30:03.356Z,11.70
2022-10-07T01:32:36.963Z,11.70
2022-10-07T01:35:08.922Z,11.70
2022-10-07T01:37:41.457Z,11.60
2022-10-07T01:40:13.654Z,11.60
2022-10-07T01:42:43.097Z,11.60
2022-10-07T01:45:14.227Z,11.60
2022-10-07T01:47:42.308Z,11.60
2022-10-07T01:50:13.419Z,11.50
2022-10-07T01:52:56.374Z,11.50
2022-10-07T01:55:40.460Z,11.50
2022-10-07T01:58:21.131Z,11.40
2022-10-07T02:00:54.123Z,11.40
2022-10-07T02:03:34.200Z,11.30
2022-10-07T02:06:11.920Z,11.30
2022-10-07T02:08:46.261Z,11.20
2022-10-07T02:11:16.859Z,11.20
2022-10-07T02:13:57.855Z,11.20
2022-10-07T02:16:30.941Z,11.10
2022-10-07T02:19:02.012Z,11.10
2022-10-07T02:21:34.384Z,11.10
2022-10-07T02:24:03.607Z,11.10
2022-10-07T02:26:34.577Z,11.10
2022-10-07T02:29:08.192Z,11.00
2022-10-07T02:31:40.187Z,11.00
2022-10-07T02:34:28.522Z,10.90
2022-10-07T02:37:00.838Z,10.90
2022-10-07T02:39:29.077Z,10.90
2022-10-07T02:42:03.953Z,10.90
2022-10-07T02:44:53.540Z,10.80
2022-10-07T02:47:26.158Z,10.90
2022-10-07T02:49:54.767Z,10.80
2022-10-07T02:52:24.518Z,10.80
2022-10-07T02:54:57.845Z,10.80
2022-10-07T02:57:27.882Z,10.80
2022-10-07T03:00:00.951Z,10.80
2022-10-07T03:02:35.997Z,10.80
2022-10-07T03:05:04.089Z,10.70
2022-10-07T03:07:32.876Z,10.70
2022-10-07T03:10:00.771Z,10.70
2022-10-07T03:12:29.348Z,10.70
2022-10-07T03:14:58.551Z,10.60
2022-10-07T03:17:26.454Z,10.60
2022-10-07T03:19:54.262Z,10.60
2022-10-07T03:22:22.189Z,10.60
2022-10-07T03:24:50.055Z,10.60
2022-10-07T03:27:18.335Z,10.60
2022-10-07T03:29:46.199Z,10.50
2022-10-07T03:32:16.094Z,10.50
2022-10-07T03:34:44.049Z,10.50
2022-10-07T03:37:11.902Z,10.50
2022-10-07T03:39:39.836Z,10.40
2022-10-07T03:42:08.987Z,10.40
2022-10-07T03:44:38.280Z,10.40
2022-10-07T03:47:10.803Z,10.40
2022-10-07T03:49:41.529Z,10.40
2022-10-07T03:54:56.472Z,10.40
2022-10-07T03:57:41.953Z,10.40
2022-10-07T04:00:10.813Z,10.40
2022-10-07T04:02:38.643Z,10.40
2022-10-07T04:05:09.356Z,10.40
2022-10-07T04:07:37.657Z,10.50
2022-10-07T04:10:06.123Z,10.50
2022-10-07T04:12:33.991Z,10.50
2022-10-07T04:15:02.474Z,10.50
2022-10-07T04:17:31.723Z,10.50
2022-10-07T04:20:00.886Z,10.50
2022-10-07T04:22:32.280Z,10.50
2022-10-07T04:25:17.722Z,10.50
2022-10-07T04:27:51.866Z,10.50
2022-10-07T04:30:20.371Z,10.50
2022-10-07T04:32:49.430Z,10.50
2022-10-07T04:35:17.888Z,10.50
2022-10-07T04:37:49.503Z,10.50
2022-10-07T04:40:19.304Z,10.50
2022-10-07T04:43:04.544Z,10.50
2022-10-07T04:45:34.067Z,10.50
2022-10-07T04:48:02.057Z,10.50
2022-10-07T04:50:30.877Z,10.50
2022-10-07T04:53:03.925Z,10.50
2022-10-07T04:55:37.595Z,10.50
2022-10-07T04:58:14.582Z,10.50
2022-10-07T05:00:50.240Z,10.50
2022-10-07T05:06:26.613Z,10.50
2022-10-07T05:08:56.775Z,10.50
2022-10-07T05:11:25.878Z,10.50
2022-10-07T05:13:53.720Z,10.50
2022-10-07T05:16:21.681Z,10.50
2022-10-07T05:18:51.037Z,10.40
2022-10-07T05:21:18.932Z,10.40
2022-10-07T05:23:48.431Z,10.40
2022-10-07T05:26:21.525Z,10.40
2022-10-07T05:28:51.493Z,10.40
2022-10-07T05:31:28.204Z,10.40
2022-10-07T05:33:59.266Z,10.40
2022-10-07T05:36:30.302Z,10.40
2022-10-07T05:38:58.279Z,10.30
2022-10-07T05:41:29.376Z,10.30
2022-10-07T05:43:57.409Z,10.30
2022-10-07T05:46:25.274Z,10.30
2022-10-07T05:48:56.016Z,10.30
2022-10-07T05:51:26.197Z,10.30
2022-10-07T05:53:55.696Z,10.30
2022-10-07T05:56:27.087Z,10.30
2022-10-07T05:58:57.283Z,10.30
2022-10-07T06:01:27.051Z,10.30
2022-10-07T06:03:57.175Z,10.30
2022-10-07T06:06:25.955Z,10.30
2022-10-07T06:09:15.527Z,10.30
2022-10-07T06:12:00.759Z,10.30
2022-10-07T06:14:30.389Z,10.30
2022-10-07T06:16:58.329Z,10.30
2022-10-07T06:19:26.308Z,10.30
2022-10-07T06:21:54.179Z,10.40
2022-10-07T06:24:22.078Z,10.40
2022-10-07T06:26:50.088Z,10.40
2022-10-07T06:29:18.069Z,10.40
2022-10-07T06:31:47.308Z,10.40
2022-10-07T06:34:15.217Z,10.40
2022-10-07T06:36:43.371Z,10.40
2022-10-07T06:39:11.209Z,10.50
2022-10-07T06:41:39.103Z,10.50
2022-10-07T06:44:07.183Z,10.50
2022-10-07T06:46:35.030Z,10.50
2022-10-07T06:49:04.534Z,10.60
2022-10-07T06:51:32.417Z,10.60
2022-10-07T06:54:00.367Z,10.70
2022-10-07T06:56:28.329Z,10.70
2022-10-07T06:58:56.611Z,10.70
2022-10-07T07:01:24.538Z,10.70
2022-10-07T07:03:54.564Z,10.80
2022-10-07T07:06:24.109Z,10.90
2022-10-07T07:08:52.423Z,10.90
2022-10-07T07:11:40.703Z,10.90
2022-10-07T07:14:10.091Z,11.00
2022-10-07T07:16:38.179Z,11.00
2022-10-07T07:19:08.689Z,11.10
2022-10-07T07:21:40.774Z,11.20
2022-10-07T07:24:08.999Z,11.30
2022-10-07T07:26:37.779Z,11.30
2022-10-07T07:29:07.213Z,11.40
2022-10-07T07:31:37.308Z,11.50
2022-10-07T07:34:11.340Z,11.60
2022-10-07T07:36:54.280Z,11.70
2022-10-07T07:39:24.772Z,11.80
2022-10-07T07:41:52.781Z,11.90
2022-10-07T07:44:21.498Z,11.90
2022-10-07T07:46:52.345Z,12.00
2022-10-07T07:49:22.045Z,12.10
2022-10-07T07:51:54.520Z,12.20
2022-10-07T07:54:33.252Z,12.30
2022-10-07T07:57:17.651Z,12.40
2022-10-07T07:59:45.829Z,12.50
2022-10-07T08:02:22.026Z,12.60
2022-10-07T08:04:55.757Z,12.70
2022-10-07T08:07:26.268Z,12.80
2022-10-07T08:09:57.809Z,12.80
2022-10-07T08:12:26.268Z,12.90
2022-10-07T08:14:55.107Z,13.00
2022-10-07T08:17:25.061Z,13.00
2022-10-07T08:19:54.507Z,13.00
2022-10-07T08:22:33.081Z,13.10
2022-10-07T08:25:00.906Z,13.20
2022-10-07T08:27:36.549Z,13.20
2022-10-07T08:30:05.145Z,13.30
2022-10-07T08:32:42.991Z,13.40
2022-10-07T08:35:10.856Z,13.50
2022-10-07T08:37:48.594Z,13.60
2022-10-07T08:40:24.190Z,13.60
2022-10-07T08:42:55.898Z,13.70
2022-10-07T08:45:37.037Z,13.80
2022-10-07T08:48:11.385Z,13.80
2022-10-07T08:50:52.579Z,13.90
2022-10-07T08:53:29.524Z,14.10
2022-10-07T08:56:12.280Z,14.30
2022-10-07T08:58:56.942Z,14.40
2022-10-07T09:01:44.607Z,14.50
2022-10-07T09:04:22.743Z,14.50
2022-10-07T09:06:57.147Z,14.60
2022-10-07T09:09:31.644Z,14.60
2022-10-07T09:12:05.082Z,14.60
2022-10-07T09:14:37.239Z,14.60
2022-10-07T09:17:11.033Z,14.50
2022-10-07T09:19:43.837Z,14.60
2022-10-07T09:22:23.119Z,14.60
2022-10-07T09:25:07.635Z,14.60
2022-10-07T09:27:46.112Z,14.50
2022-10-07T09:30:22.420Z,14.50
2022-10-07T09:33:25.325Z,14.50
2022-10-07T09:36:02.099Z,14.40
2022-10-07T09:38:36.917Z,14.40
2022-10-07T09:41:21.988Z,14.50
2022-10-07T09:43:59.047Z,14.50
2022-10-07T09:46:46.456Z,14.50
2022-10-07T09:49:35.291Z,14.50
2022-10-07T09:52:10.514Z,14.50
2022-10-07T09:54:38.380Z,14.50
2022-10-07T09:57:23.769Z,14.50
2022-10-07T09:59:51.651Z,14.50
2022-10-07T10:02:23.860Z,14.50
2022-10-07T10:04:53.644Z,14.50
2022-10-07T10:07:27.024Z,14.50
2022-10-07T10:10:14.868Z,14.60
2022-10-07T10:13:07.736Z,14.60
2022-10-07T10:15:52.211Z,14.60
2022-10-07T10:18:39.884Z,14.60
2022-10-07T10:21:44.180Z,14.50
2022-10-07T10:24:18.850Z,14.60
2022-10-07T10:27:04.130Z,14.60
2022-10-07T10:30:03.638Z,14.70
2022-10-07T10:32:51.038Z,14.70
2022-10-07T10:35:26.380Z,14.80
2022-10-07T10:38:21.095Z,14.90
2022-10-07T10:41:03.968Z,15.00
2022-10-07T10:43:42.095Z,15.00
2022-10-07T10:49:39.420Z,15.10
2022-10-07T10:52:32.664Z,15.10
2022-10-07T10:55:39.036Z,15.20
2022-10-07T10:58:26.072Z,15.20
2022-10-07T11:01:06.703Z,15.20
2022-10-07T11:03:59.133Z,15.20
2022-10-07T11:06:47.096Z,15.30
2022-10-07T11:09:19.496Z,15.30
2022-10-07T11:11:53.326Z,15.40
2022-10-07T11:14:38.988Z,15.40
2022-10-07T11:17:45.011Z,15.50
2022-10-07T11:20:28.125Z,15.50
2022-10-07T11:23:04.817Z,15.50
2022-10-07T11:25:43.088Z,15.50
2022-10-07T11:28:26.332Z,15.50
2022-10-07T11:31:04.559Z,15.60
2022-10-07T11:33:46.377Z,15.60
2022-10-07T11:36:19.981Z,15.60
2022-10-07T11:39:00.911Z,15.70
2022-10-07T11:41:34.869Z,15.70
2022-10-07T11:44:08.748Z,15.70
2022-10-07T11:46:40.932Z,15.80
2022-10-07T11:49:17.398Z,15.80
2022-10-07T11:51:55.159Z,15.90
2022-10-07T11:54:28.677Z,15.90
2022-10-07T11:57:00.476Z,16.00
2022-10-07T11:59:44.729Z,16.10
2022-10-07T12:02:39.631Z,16.20
2022-10-07T12:05:09.306Z,16.30
2022-10-07T12:07:41.094Z,16.30
2022-10-07T12:10:29.634Z,16.30
2022-10-07T12:13:36.764Z,16.40
2022-10-07T12:16:40.710Z,16.40
2022-10-07T12:19:23.974Z,16.40
2022-10-07T12:22:22.933Z,16.50
2022-10-07T12:25:24.454Z,16.50
2022-10-07T12:28:05.744Z,16.60
2022-10-07T12:30:43.432Z,16.60
2022-10-07T12:33:32.938Z,16.60
2022-10-07T12:36:33.972Z,16.60
2022-10-07T12:39:44.005Z,16.50
2022-10-07T12:42:16.226Z,16.40
2022-10-07T12:44:55.566Z,16.40
2022-10-07T12:50:34.076Z,16.30
2022-10-07T12:53:04.815Z,16.30
2022-10-07T12:55:37.606Z,16.30
2022-10-07T12:58:36.595Z,16.30
2022-10-07T13:01:21.653Z,16.30
2022-10-07T13:04:11.732Z,16.40
2022-10-07T13:07:06.933Z,16.40
2022-10-07T13:09:55.908Z,16.40
2022-10-07T13:12:36.851Z,16.40
2022-10-07T13:15:17.340Z,16.40
2022-10-07T13:17:53.742Z,16.50
2022-10-07T13:20:56.880Z,16.50
2022-10-07T13:23:29.178Z,16.60
2022-10-07T13:26:00.314Z,16.60
2022-10-07T13:28:44.302Z,16.60
2022-10-07T13:31:21.794Z,16.60
2022-10-07T13:33:54.477Z,16.70
2022-10-07T13:36:33.708Z,16.70
2022-10-07T13:39:12.741Z,16.80
2022-10-07T13:41:53.236Z,16.80
2022-10-07T13:44:24.909Z,16.80
2022-10-07T13:46:58.082Z,16.80
2022-10-07T13:49:35.772Z,16.80
2022-10-07T13:52:22.543Z,16.80
2022-10-07T13:55:21.393Z,16.70
2022-10-07T13:57:50.453Z,16.60
2022-10-07T14:00:18.850Z,16.60
2022-10-07T14:02:50.461Z,16.50
2022-10-07T14:05:25.884Z,16.40
2022-10-07T14:08:21.202Z,16.40
2022-10-07T14:11:01.415Z,16.30
2022-10-07T14:14:05.768Z,16.30
2022-10-07T14:16:37.423Z,16.30
2022-10-07T14:19:06.842Z,16.20
2022-10-07T14:21:44.344Z,16.30
2022-10-07T14:24:12.669Z,16.20
2022-10-07T14:26:49.271Z,16.20
2022-10-07T14:29:38.861Z,16.20
2022-10-07T14:32:38.425Z,16.20
2022-10-07T14:35:24.160Z,16.20
2022-10-07T14:37:53.454Z,16.20
2022-10-07T14:40:23.505Z,16.20
2022-10-07T14:42:55.584Z,16.20
2022-10-07T14:45:23.834Z,16.30
2022-10-07T14:47:55.329Z,16.30
2022-10-07T14:50:23.584Z,16.20
2022-10-07T14:52:53.726Z,16.20
2022-10-07T14:55:27.869Z,16.20
2022-10-07T14:57:56.035Z,16.20
2022-10-07T15:00:27.621Z,16.10
2022-10-07T15:02:58.189Z,16.10
2022-10-07T15:05:33.014Z,16.20
2022-10-07T15:08:02.554Z,16.20
2022-10-07T15:10:36.062Z,16.20
2022-10-07T15:13:11.072Z,16.30
2022-10-07T15:15:42.169Z,16.30
2022-10-07T15:18:11.544Z,16.30
2022-10-07T15:20:42.527Z,16.30
2022-10-07T15:23:15.868Z,16.30
2022-10-07T15:25:45.806Z,16.30
2022-10-07T15:28:15.413Z,16.20
2022-10-07T15:30:44.938Z,16.20
2022-10-07T15:33:17.973Z,16.20
2022-10-07T15:35:48.196Z,16.20
2022-10-07T15:38:17.472Z,16.20
2022-10-07T15:40:56.750Z,16.20
2022-10-07T15:43:25.126Z,16.20
2022-10-07T15:45:59.343Z,16.20
2022-10-07T15:48:29.750Z,16.20
2022-10-07T15:51:01.945Z,16.20
2022-10-07T15:53:34.978Z,16.20
2022-10-07T15:56:02.815Z,16.20
2022-10-07T15:58:32.796Z,16.20
2022-10-07T16:01:03.072Z,16.20
2022-10-07T16:03:38.797Z,16.20
2022-10-07T16:06:13.896Z,16.20
2022-10-07T16:08:46.372Z,16.20
2022-10-07T16:11:15.152Z,16.20
2022-10-07T16:13:48.322Z,16.20
2022-10-07T16:16:21.325Z,16.10
2022-10-07T16:18:52.856Z,16.10
2022-10-07T16:21:24.244Z,16.10
2022-10-07T16:23:57.241Z,16.10
2022-10-07T16:26:30.226Z,16.10
2022-10-07T16:29:19.167Z,16.10
2022-10-07T16:31:59.064Z,16.10
2022-10-07T16:34:29.347Z,16.00
2022-10-07T16:37:01.825Z,16.00
2022-10-07T16:39:38.824Z,16.00
2022-10-07T16:42:22.512Z,16.00
2022-10-07T16:45:07.921Z,16.00
2022-10-07T16:47:37.643Z,15.90
2022-10-07T16:50:11.060Z,15.90
2022-10-07T16:52:45.323Z,15.90
2022-10-07T16:55:18.533Z,15.90
2022-10-07T16:58:12.525Z,15.80
2022-10-07T17:00:42.793Z,15.80
2022-10-07T17:03:15.443Z,15.80
2022-10-07T17:05:44.982Z,15.80
2022-10-07T17:08:14.433Z,15.80
2022-10-07T17:10:59.633Z,15.80
2022-10-07T17:13:29.758Z,15.80
2022-10-07T17:19:03.804Z,15.70
2022-10-07T17:22:09.346Z,15.70
2022-10-07T17:24:42.671Z,15.70
2022-10-07T17:27:31.501Z,15.70
2022-10-07T17:30:00.990Z,15.70
2022-10-07T17:32:37.681Z,15.60
2022-10-07T17:35:11.052Z,15.70
2022-10-07T17:37:41.197Z,15.60
2022-10-07T17:40:13.755Z,15.60
2022-10-07T17:42:46.554Z,15.60
2022-10-07T17:45:21.456Z,15.60
2022-10-07T17:47:49.432Z,15.60
2022-10-07T17:50:17.811Z,15.60
2022-10-07T17:52:56.376Z,15.50
2022-10-07T17:55:30.020Z,15.50
2022-10-07T17:58:22.726Z,15.50
2022-10-07T18:00:56.380Z,15.60
2022-10-07T18:03:27.382Z,15.50
2022-10-07T18:06:07.519Z,15.50
2022-10-07T18:08:44.982Z,15.50
2022-10-07T18:11:13.626Z,15.50
2022-10-07T18:14:33.845Z,15.50
2022-10-07T18:17:18.055Z,15.60
2022-10-07T18:19:49.847Z,15.50
2022-10-07T18:25:16.225Z,15.50
2022-10-07T18:27:44.649Z,15.50
2022-10-07T18:30:16.551Z,15.50
2022-10-07T18:32:50.242Z,15.50
2022-10-07T18:35:18.696Z,15.50
2022-10-07T18:37:49.498Z,15.50
2022-10-07T18:40:17.385Z,15.50
2022-10-07T18:42:45.898Z,15.50
2022-10-07T18:45:18.940Z,15.50
2022-10-07T18:47:53.863Z,15.50
2022-10-07T18:50:22.303Z,15.50
2022-10-07T18:52:52.258Z,15.40
2022-10-07T18:55:23.276Z,15.50
2022-10-07T18:57:54.394Z,15.40
2022-10-07T19:00:22.533Z,15.40
2022-10-07T19:02:55.248Z,15.40
2022-10-07T19:05:24.393Z,15.40
2022-10-07T19:07:52.359Z,15.40
2022-10-07T19:10:20.323Z,15.30
2022-10-07T19:13:05.414Z,15.30
2022-10-07T19:15:33.327Z,15.30
2022-10-07T19:18:06.528Z,15.20
2022-10-07T19:20:36.838Z,15.20
2022-10-07T19:23:09.601Z,15.20
2022-10-07T19:25:48.266Z,15.20
2022-10-07T19:28:16.228Z,15.10
2022-10-07T19:30:45.148Z,15.10
2022-10-07T19:33:15.328Z,15.10
2022-10-07T19:35:43.362Z,15.10
2022-10-07T19:38:11.649Z,15.00
2022-10-07T19:40:40.678Z,15.00
2022-10-07T19:43:10.686Z,15.00
2022-10-07T19:45:40.027Z,15.00
2022-10-07T19:48:13.942Z,15.00
2022-10-07T19:50:46.054Z,14.90
2022-10-07T19:53:15.489Z,14.90
2022-10-07T19:55:46.827Z,14.90
2022-10-07T19:58:14.914Z,14.90
2022-10-07T20:00:42.720Z,14.80
2022-10-07T20:03:10.573Z,14.80
2022-10-07T20:05:40.954Z,14.80
2022-10-07T20:08:10.347Z,14.80
2022-10-07T20:10:39.418Z,14.80
2022-10-07T20:13:07.293Z,14.70
2022-10-07T20:15:35.105Z,14.70
2022-10-07T20:18:03.890Z,14.70
2022-10-07T20:20:32.101Z,14.70
2022-10-07T20:23:00.968Z,14.70
2022-10-07T20:25:30.164Z,14.70
2022-10-07T20:27:58.412Z,14.60
2022-10-07T20:30:26.250Z,14.70
2022-10-07T20:32:54.068Z,14.70
2022-10-07T20:35:23.466Z,14.60
2022-10-07T20:37:51.305Z,14.60
2022-10-07T20:40:36.887Z,14.60
2022-10-07T20:43:06.080Z,14.60
2022-10-07T20:45:54.173Z,14.60
2022-10-07T20:48:22.127Z,14.60
2022-10-07T20:50:50.468Z,14.50
2022-10-07T20:53:18.303Z,14.50
2022-10-07T20:55:46.139Z,14.50
2022-10-07T20:58:15.313Z,14.50
2022-10-07T21:00:44.089Z,14.50
2022-10-07T21:03:12.058Z,14.40
2022-10-07T21:05:39.989Z,14.50
2022-10-07T21:08:07.856Z,14.50
2022-10-07T21:10:35.757Z,14.50
2022-10-07T21:13:03.817Z,14.50
2022-10-07T21:15:37.500Z,14.50
2022-10-07T21:18:05.777Z,14.50
2022-10-07T21:20:33.627Z,14.50
2022-10-07T21:23:01.443Z,14.40
2022-10-07T21:25:29.245Z,14.40
2022-10-07T21:27:58.781Z,14.40
2022-10-07T21:30:27.143Z,14.50
2022-10-07T21:32:56.374Z,14.50
2022-10-07T21:35:24.210Z,14.50
2022-10-07T21:37:52.592Z,14.50
2022-10-07T21:40:21.041Z,14.50
2022-10-07T21:42:49.245Z,14.50
2022-10-07T21:45:17.288Z,14.40
2022-10-07T21:47:45.123Z,14.50
2022-10-07T21:50:14.427Z,14.50
2022-10-07T21:52:44.382Z,14.50
2022-10-07T21:55:12.477Z,14.50
2022-10-07T21:57:42.524Z,14.50
2022-10-07T22:00:12.346Z,14.50
2022-10-07T22:02:40.241Z,14.50
2022-10-07T22:05:08.714Z,14.50
2022-10-07T22:07:55.708Z,14.50
2022-10-07T22:10:23.651Z,14.50
2022-10-07T22:12:51.587Z,14.50
2022-10-07T22:15:20.354Z,14.50
2022-10-07T22:17:48.285Z,14.50
2022-10-07T22:20:16.363Z,14.50
2022-10-07T22:22:45.824Z,14.50
2022-10-07T22:25:14.067Z,14.50
2022-10-07T22:27:42.256Z,14.50
2022-10-07T22:30:11.419Z,14.50
2022-10-07T22:32:39.350Z,14.50
2022-10-07T22:35:25.404Z,14.50
2022-10-07T22:37:55.261Z,14.50
2022-10-07T22:40:23.175Z,14.40
2022-10-07T22:42:51.107Z,14.50
2022-10-07T22:45:19.682Z,14.40
2022-10-07T22:47:50.078Z,14.40
2022-10-07T22:50:18.575Z,14.50
2022-10-07T22:52:47.385Z,14.40
2022-10-07T22:55:18.027Z,14.40
2022-10-07T22:57:45.931Z,14.40
2022-10-07T23:00:15.378Z,14.50
2022-10-07T23:02:44.282Z,14.40
2022-10-07T23:05:13.403Z,14.50
2022-10-07T23:07:41.302Z,14.50
2022-10-07T23:10:10.369Z,14.50
2022-10-07T23:12:41.865Z,14.50
2022-10-07T23:15:10.364Z,14.50
2022-10-07T23:17:38.346Z,14.50
2022-10-07T23:20:08.951Z,14.40
2022-10-07T23:22:39.992Z,14.30
2022-10-07T23:25:08.706Z,14.30
2022-10-07T23:27:37.097Z,14.20
2022-10-07T23:30:12.165Z,14.10
2022-10-07T23:32:41.203Z,14.10
2022-10-07T23:37:58.713Z,14.10
2022-10-07T23:40:26.689Z,14.10
2022-10-07T23:42:54.700Z,14.10
2022-10-07T23:45:24.045Z,14.00
2022-10-07T23:47:53.138Z,14.00
2022-10-07T23:50:21.647Z,14.10
2022-10-07T23:52:50.031Z,14.10
2022-10-07T23:55:18.200Z,14.10
2022-10-07T23:57:46.042Z,14.10
